Time;durP1;ratioP1;P1;durP2;ratioP2;P2;SDS_P1;SDS_P2;PMS_P1;PMS_P2;Temp;Humidity;BMP_temperature;BMP_pressure;BME280_temperature;BME280_humidity;BME280_pressure;Samples;Min_cycle;Max_cycle;Signal;HPM_P1;HPM_P2
2022/05/30 00:00:21;;;;;;;1999.90;999.90;;;7.10;99.90;;;;;;5048051;28;20131;-80
2022/05/30 00:02:47;;;;;;;1999.90;999.90;;;7.10;99.90;;;;;;5051930;28;20453;-80
2022/05/30 00:05:14;;;;;;;1999.90;999.90;;;7.20;99.90;;;;;;5056839;28;20049;-80
2022/05/30 00:07:39;;;;;;;1999.90;999.90;;;7.20;99.90;;;;;;5046578;28;20040;-80
2022/05/30 00:10:08;;;;;;;1999.90;999.90;;;7.20;99.90;;;;;;5064501;28;20044;-80
2022/05/30 00:12:34;;;;;;;1999.90;999.90;;;7.20;99.90;;;;;;5066651;28;20039;-80
2022/05/30 00:14:59;;;;;;;1999.90;999.90;;;7.20;99.90;;;;;;5064287;28;20036;-80
2022/05/30 00:17:25;;;;;;;1999.90;999.90;;;7.10;99.90;;;;;;5052533;28;20105;-80
2022/05/30 00:19:51;;;;;;;1999.90;999.90;;;7.10;99.90;;;;;;5070490;28;20044;-80
2022/05/30 00:22:18;;;;;;;1999.90;999.90;;;7.00;99.90;;;;;;5067984;28;20047;-80
2022/05/30 00:24:44;;;;;;;1999.90;999.90;;;7.00;99.90;;;;;;5069453;28;20064;-80
2022/05/30 00:27:11;;;;;;;1999.90;999.90;;;6.90;99.90;;;;;;5047231;28;20555;-80
2022/05/30 00:29:37;;;;;;;1999.90;999.90;;;6.90;99.90;;;;;;5045710;28;20438;-80
2022/05/30 00:32:05;;;;;;;1999.90;999.90;;;6.80;99.90;;;;;;5049943;28;20047;-80
2022/05/30 00:34:32;;;;;;;1999.90;999.90;;;6.70;99.90;;;;;;5086489;28;20043;-80
2022/05/30 00:36:57;;;;;;;1999.90;999.90;;;6.70;99.90;;;;;;5076083;28;20082;-81
2022/05/30 00:39:23;;;;;;;1999.90;999.90;;;6.60;99.90;;;;;;5045883;28;20072;-80
2022/05/30 00:41:49;;;;;;;1999.90;999.90;;;6.60;99.90;;;;;;5055078;28;20046;-80
2022/05/30 00:44:14;;;;;;;1999.90;999.90;;;6.60;99.90;;;;;;5059707;28;20050;-80
2022/05/30 00:46:40;;;;;;;1999.90;999.90;;;6.60;99.90;;;;;;5055469;28;20067;-79
2022/05/30 00:49:10;;;;;;;1999.90;999.90;;;6.60;99.90;;;;;;5059772;28;20074;-79
2022/05/30 00:51:46;;;;;;;1999.90;999.90;;;6.60;99.90;;;;;;5070014;28;20047;-79
2022/05/30 00:54:17;;;;;;;1999.90;999.90;;;6.70;99.90;;;;;;5076809;28;20063;-79
2022/05/30 00:56:46;;;;;;;1999.90;999.90;;;6.70;99.90;;;;;;5050699;28;20215;-79
2022/05/30 00:59:13;;;;;;;1999.90;999.90;;;6.80;99.90;;;;;;5048418;28;20098;-78
2022/05/30 01:01:38;;;;;;;1999.90;999.90;;;6.90;99.90;;;;;;5049222;28;20421;-78
2022/05/30 01:06:55;;;;;;;1999.90;999.90;;;7.00;99.90;;;;;;5073737;28;20105;-78
2022/05/30 01:09:28;;;;;;;1999.90;999.90;;;7.10;99.90;;;;;;5063883;28;20036;-78
2022/05/30 01:12:09;;;;;;;1999.90;999.90;;;7.10;99.90;;;;;;5050950;28;20094;-78
2022/05/30 01:14:41;;;;;;;1999.90;999.90;;;7.20;99.90;;;;;;5088696;28;20031;-78
2022/05/30 01:17:13;;;;;;;1999.90;999.90;;;7.20;99.90;;;;;;5075111;28;20040;-79
2022/05/30 01:19:42;;;;;;;1999.90;999.90;;;7.30;99.90;;;;;;5059779;28;20313;-79
2022/05/30 01:22:26;;;;;;;1999.90;999.90;;;7.30;99.90;;;;;;5062300;28;20075;-78
2022/05/30 01:25:00;;;;;;;1999.90;999.90;;;7.30;99.90;;;;;;5050173;28;20049;-78
2022/05/30 01:28:02;;;;;;;1999.90;999.90;;;7.40;99.90;;;;;;5063726;28;20489;-78
2022/05/30 01:30:28;;;;;;;1999.90;999.90;;;7.40;99.90;;;;;;5051300;28;20046;-78
2022/05/30 01:32:58;;;;;;;1999.90;999.90;;;7.50;99.90;;;;;;5076798;28;20127;-78
2022/05/30 01:35:26;;;;;;;1999.90;999.90;;;7.50;99.90;;;;;;5074238;28;20050;-78
2022/05/30 01:37:51;;;;;;;1999.90;999.90;;;7.50;99.90;;;;;;5072717;28;20051;-78
2022/05/30 01:40:18;;;;;;;1999.90;999.90;;;7.50;99.90;;;;;;5066481;28;20051;-78
2022/05/30 01:42:44;;;;;;;1999.90;999.90;;;7.50;99.90;;;;;;5079189;28;20051;-78
2022/05/30 01:45:10;;;;;;;1999.90;999.90;;;7.60;99.90;;;;;;5054577;28;20058;-79
2022/05/30 01:47:36;;;;;;;1999.90;999.90;;;7.60;99.90;;;;;;5060714;28;20501;-79
2022/05/30 01:50:03;;;;;;;1999.90;999.90;;;7.60;99.90;;;;;;5071714;28;20630;-79
2022/05/30 01:52:28;;;;;;;1999.90;999.90;;;7.50;99.90;;;;;;5046809;28;20046;-79
2022/05/30 01:54:54;;;;;;;1999.90;999.90;;;7.50;99.90;;;;;;5065952;28;20040;-78
2022/05/30 01:57:20;;;;;;;1999.90;999.90;;;7.50;99.90;;;;;;5072250;28;20071;-78
2022/05/30 01:59:46;;;;;;;1999.90;999.90;;;7.50;99.90;;;;;;5052379;28;20516;-78
2022/05/30 02:02:12;;;;;;;1999.90;999.90;;;7.40;99.90;;;;;;5068576;28;20090;-78
2022/05/30 02:04:38;;;;;;;1999.90;999.90;;;7.40;99.90;;;;;;5072168;28;20496;-78
2022/05/30 02:07:04;;;;;;;1999.90;999.90;;;7.30;99.90;;;;;;5054876;28;20032;-78
2022/05/30 02:09:30;;;;;;;1999.90;999.90;;;7.20;99.90;;;;;;5046268;28;20040;-78
2022/05/30 02:11:56;;;;;;;1999.90;999.90;;;7.10;99.90;;;;;;5048552;28;20098;-78
2022/05/30 02:14:21;;;;;;;1999.90;999.90;;;7.00;99.90;;;;;;5052613;28;20066;-78
2022/05/30 02:17:04;;;;;;;1999.90;999.90;;;7.00;99.90;;;;;;5048381;28;20101;-78
2022/05/30 02:19:44;;;;;;;1999.90;999.90;;;6.80;99.90;;;;;;5044075;28;20036;-79
2022/05/30 02:22:18;;;;;;;1999.90;999.90;;;6.80;99.90;;;;;;5052395;28;20123;-78
2022/05/30 02:24:45;;;;;;;1999.90;999.90;;;6.70;99.90;;;;;;5041046;28;20056;-78
2022/05/30 02:27:12;;;;;;;1999.90;999.90;;;6.60;99.90;;;;;;5049029;28;20106;-78
2022/05/30 02:29:38;;;;;;;1999.90;999.90;;;6.60;99.90;;;;;;5049748;28;20127;-78
2022/05/30 02:32:05;;;;;;;1999.90;999.90;;;6.50;99.90;;;;;;5059119;28;20431;-78
2022/05/30 02:37:15;;;;;;;1999.90;999.90;;;6.50;99.90;;;;;;5074590;28;20040;-78
2022/05/30 02:39:40;;;;;;;1999.90;999.90;;;6.60;99.90;;;;;;5055902;28;20460;-78
2022/05/30 02:42:07;;;;;;;1999.90;999.90;;;6.60;99.90;;;;;;5069710;28;20050;-78
2022/05/30 02:44:33;;;;;;;1999.90;999.90;;;6.60;99.90;;;;;;5064998;28;20048;-78
2022/05/30 02:46:59;;;;;;;1999.90;999.90;;;6.60;99.90;;;;;;5046077;28;20485;-79
2022/05/30 02:49:26;;;;;;;1999.90;999.90;;;6.60;99.90;;;;;;5053756;28;20028;-78
2022/05/30 02:51:52;;;;;;;1999.90;999.90;;;6.60;99.90;;;;;;5071714;28;20489;-78
2022/05/30 02:54:18;;;;;;;1999.90;999.90;;;6.60;99.90;;;;;;5069163;28;20370;-79
2022/05/30 02:56:53;;;;;;;1999.90;999.90;;;6.50;99.90;;;;;;5068433;28;20493;-78
2022/05/30 02:59:19;;;;;;;1999.90;999.90;;;6.50;99.90;;;;;;5050283;28;20108;-78
2022/05/30 03:01:45;;;;;;;1999.90;999.90;;;6.50;99.90;;;;;;5074680;28;20040;-78
2022/05/30 03:04:11;;;;;;;1999.90;999.90;;;6.40;99.90;;;;;;5070838;28;20512;-78
2022/05/30 03:06:37;;;;;;;1999.90;999.90;;;6.40;99.90;;;;;;5071323;28;20035;-78
2022/05/30 03:09:05;;;;;;;1999.90;999.90;;;6.40;99.90;;;;;;5055308;28;20036;-78
2022/05/30 03:11:31;;;;;;;1999.90;999.90;;;6.40;99.90;;;;;;5072822;28;20402;-78
2022/05/30 03:13:56;;;;;;;1999.90;999.90;;;6.40;99.90;;;;;;5060969;28;20047;-78
2022/05/30 03:16:22;;;;;;;1999.90;999.90;;;6.30;99.90;;;;;;5066701;28;20044;-78
2022/05/30 03:18:48;;;;;;;1999.90;999.90;;;6.40;99.90;;;;;;5077518;28;20067;-78
2022/05/30 03:21:14;;;;;;;1999.90;999.90;;;6.30;99.90;;;;;;5056680;28;20378;-78
2022/05/30 03:23:39;;;;;;;1999.90;999.90;;;6.30;99.90;;;;;;5075126;28;20055;-78
2022/05/30 03:26:06;;;;;;;1999.90;999.90;;;6.30;99.90;;;;;;5043508;28;20404;-78
2022/05/30 03:28:33;;;;;;;1999.90;999.90;;;6.30;99.90;;;;;;5062804;28;20064;-78
2022/05/30 03:31:00;;;;;;;1999.90;999.90;;;6.30;99.90;;;;;;5065444;28;20119;-79
2022/05/30 03:33:26;;;;;;;1999.90;999.90;;;6.30;99.90;;;;;;5079954;28;20040;-78
2022/05/30 03:35:52;;;;;;;1999.90;999.90;;;6.30;99.90;;;;;;5057432;28;20044;-78
2022/05/30 03:38:18;;;;;;;1999.90;999.90;;;6.30;99.90;;;;;;5070262;28;20406;-79
2022/05/30 03:40:43;;;;;;;1999.90;999.90;;;6.30;99.90;;;;;;5058768;28;20036;-79
2022/05/30 03:43:10;;;;;;;1999.90;999.90;;;6.40;99.90;;;;;;5077816;28;20047;-78
2022/05/30 03:45:42;;;;;;;1999.90;999.90;;;6.40;99.90;;;;;;5069960;28;20040;-79
2022/05/30 03:48:09;;;;;;;1999.90;999.90;;;6.50;99.90;;;;;;5052373;28;20446;-79
2022/05/30 03:50:38;;;;;;;1999.90;999.90;;;6.50;99.90;;;;;;5068774;28;20048;-79
2022/05/30 03:53:07;;;;;;;1999.90;999.90;;;6.60;99.90;;;;;;5050659;28;20048;-78
2022/05/30 03:55:39;;;;;;;1999.90;999.90;;;6.60;99.90;;;;;;5080855;28;20084;-79
2022/05/30 03:58:07;;;;;;;1999.90;999.90;;;6.60;99.90;;;;;;5063531;28;20039;-79
2022/05/30 04:00:34;;;;;;;1999.90;999.90;;;6.70;99.90;;;;;;5042902;28;20048;-79
2022/05/30 04:03:03;;;;;;;1999.90;999.90;;;6.70;99.90;;;;;;5055618;28;20110;-79
2022/05/30 04:05:28;;;;;;;1999.90;999.90;;;6.70;99.90;;;;;;5074653;28;20382;-79
2022/05/30 04:07:55;;;;;;;1999.90;999.90;;;6.80;99.90;;;;;;5059153;28;20074;-79
2022/05/30 04:10:21;;;;;;;1999.90;999.90;;;6.80;99.90;;;;;;5062015;28;20032;-79
2022/05/30 04:12:47;;;;;;;1999.90;999.90;;;6.90;99.90;;;;;;5053219;28;20041;-79
2022/05/30 04:15:22;;;;;;;1999.90;999.90;;;6.90;99.90;;;;;;5058693;28;20090;-79
2022/05/30 04:17:48;;;;;;;1999.90;999.90;;;7.00;99.90;;;;;;5058432;28;20047;-79
2022/05/30 04:20:15;;;;;;;1999.90;999.90;;;7.00;99.90;;;;;;5051880;28;20070;-79
2022/05/30 04:22:40;;;;;;;1999.90;999.90;;;7.10;99.90;;;;;;5077682;28;20055;-79
2022/05/30 04:25:07;;;;;;;1999.90;999.90;;;7.10;99.90;;;;;;5070823;28;20051;-79
2022/05/30 04:27:32;;;;;;;1999.90;999.90;;;7.20;99.90;;;;;;5074707;28;20048;-78
2022/05/30 04:29:58;;;;;;;1999.90;999.90;;;7.20;99.90;;;;;;5064159;28;20047;-79
2022/05/30 04:32:24;;;;;;;1999.90;999.90;;;7.20;99.90;;;;;;5069645;28;20221;-79
2022/05/30 04:34:50;;;;;;;1999.90;999.90;;;7.20;99.90;;;;;;5070696;28;20047;-79
2022/05/30 04:37:16;;;;;;;1999.90;999.90;;;7.20;99.90;;;;;;5038961;28;20401;-79
2022/05/30 04:39:42;;;;;;;1999.90;999.90;;;7.30;99.90;;;;;;5052576;28;20044;-78
2022/05/30 04:42:08;;;;;;;1999.90;999.90;;;7.40;99.90;;;;;;5073456;28;20039;-79
2022/05/30 04:44:35;;;;;;;1999.90;999.90;;;7.40;99.90;;;;;;5064680;28;20036;-79
2022/05/30 04:47:01;;;;;;;1999.90;999.90;;;7.50;99.90;;;;;;5068518;28;20071;-79
2022/05/30 04:49:28;;;;;;;1999.90;999.90;;;7.60;99.90;;;;;;5039591;28;20043;-79
2022/05/30 04:51:53;;;;;;;1999.90;999.90;;;7.70;99.90;;;;;;5051232;28;20047;-79
2022/05/30 04:54:20;;;;;;;1999.90;999.90;;;7.80;99.90;;;;;;5069510;28;20493;-79
2022/05/30 04:56:47;;;;;;;1999.90;999.90;;;8.00;99.90;;;;;;5081019;28;20447;-79
2022/05/30 04:59:13;;;;;;;1999.90;999.90;;;8.10;99.90;;;;;;5051567;28;20036;-79
2022/05/30 05:01:39;;;;;;;1999.90;999.90;;;8.10;99.90;;;;;;5071379;28;20409;-79
2022/05/30 05:04:06;;;;;;;1999.90;999.90;;;8.20;99.90;;;;;;5058569;28;20039;-79
2022/05/30 05:06:32;;;;;;;1999.90;999.90;;;8.30;99.90;;;;;;5060898;28;20123;-79
2022/05/30 05:09:18;;;;;;;1999.90;999.90;;;8.40;99.90;;;;;;5047677;28;20044;-79
2022/05/30 05:11:46;;;;;;;1999.90;999.90;;;8.60;99.90;;;;;;5047580;28;20393;-79
2022/05/30 05:14:13;;;;;;;1999.90;999.90;;;9.20;99.90;;;;;;5053130;28;20071;-79
2022/05/30 05:16:39;;;;;;;1999.90;999.90;;;10.00;99.90;;;;;;5048196;28;20505;-79
2022/05/30 05:19:06;;;;;;;1999.90;999.90;;;10.10;99.90;;;;;;5063339;28;20433;-79
2022/05/30 05:21:36;;;;;;;1999.90;999.90;;;10.00;99.90;;;;;;5052423;28;20028;-78
2022/05/30 05:24:04;;;;;;;1999.90;999.90;;;10.10;99.90;;;;;;5078880;28;20052;-79
2022/05/30 05:26:30;;;;;;;1999.90;999.90;;;10.20;99.90;;;;;;5067953;28;20057;-79
2022/05/30 05:28:57;;;;;;;1999.90;999.90;;;10.40;99.90;;;;;;5062669;28;20043;-78
2022/05/30 05:31:29;;;;;;;1999.90;999.90;;;10.60;99.90;;;;;;5077789;28;20043;-79
2022/05/30 05:33:57;;;;;;;1999.90;999.90;;;10.70;99.90;;;;;;5063855;28;20080;-79
2022/05/30 05:36:25;;;;;;;1999.90;999.90;;;10.70;99.90;;;;;;5052876;28;20044;-79
2022/05/30 05:38:52;;;;;;;1999.90;999.90;;;10.90;99.90;;;;;;5072311;28;20043;-79
2022/05/30 05:41:18;;;;;;;1999.90;999.90;;;11.40;99.90;;;;;;5075123;28;20027;-79
2022/05/30 05:43:43;;;;;;;1999.90;999.90;;;11.90;99.90;;;;;;5056280;28;20059;-78
2022/05/30 05:46:14;;;;;;;1999.90;999.90;;;12.00;99.90;;;;;;5082445;28;20485;-79
2022/05/30 05:48:40;;;;;;;1999.90;999.90;;;11.90;99.90;;;;;;5051484;28;20072;-79
2022/05/30 05:51:05;;;;;;;1999.90;999.90;;;11.90;99.90;;;;;;5057574;28;20115;-78
2022/05/30 05:53:31;;;;;;;1999.90;999.90;;;11.90;99.90;;;;;;5055089;28;20036;-79
2022/05/30 05:55:57;;;;;;;1999.90;999.90;;;11.90;99.90;;;;;;5048581;28;20409;-78
2022/05/30 05:58:23;;;;;;;1999.90;999.90;;;11.80;99.90;;;;;;5062512;28;20489;-79
2022/05/30 06:00:49;;;;;;;1999.90;999.90;;;11.80;99.90;;;;;;5074071;28;20044;-78
2022/05/30 06:03:14;;;;;;;1999.90;999.90;;;12.00;99.90;;;;;;5053609;28;20540;-79
2022/05/30 06:05:40;;;;;;;1999.90;999.90;;;12.60;99.90;;;;;;5055410;28;20039;-79
2022/05/30 06:08:07;;;;;;;1999.90;999.90;;;13.50;99.90;;;;;;5082199;28;20043;-78
2022/05/30 06:10:33;;;;;;;1999.90;999.90;;;13.90;99.90;;;;;;5047899;28;20044;-79
2022/05/30 06:12:58;;;;;;;1999.90;999.90;;;13.90;99.90;;;;;;5071772;28;20089;-79
2022/05/30 06:15:24;;;;;;;1999.90;999.90;;;13.70;99.90;;;;;;5054404;28;20442;-79
2022/05/30 06:17:50;;;;;;;1999.90;999.90;;;13.50;99.90;;;;;;5069342;28;20044;-79
2022/05/30 06:20:18;;;;;;;1999.90;999.90;;;13.30;99.90;;;;;;5054658;28;20050;-78
2022/05/30 06:22:45;;;;;;;1999.90;999.90;;;13.30;99.90;;;;;;5069898;28;20044;-78
2022/05/30 06:25:10;;;;;;;1999.90;999.90;;;13.70;99.90;;;;;;5071358;28;20079;-79
2022/05/30 06:27:37;;;;;;;1999.90;999.90;;;14.30;99.90;;;;;;5065858;28;20135;-79
2022/05/30 06:30:04;;;;;;;1999.90;999.90;;;14.90;99.90;;;;;;5071752;28;20134;-79
2022/05/30 06:32:29;;;;;;;1999.90;999.90;;;15.10;99.90;;;;;;5055027;28;20047;-79
2022/05/30 06:34:55;;;;;;;1999.90;999.90;;;15.10;99.90;;;;;;5064385;28;20044;-79
2022/05/30 06:37:21;;;;;;;1999.90;999.90;;;15.70;99.90;;;;;;5070418;28;20040;-79
2022/05/30 06:39:47;;;;;;;1999.90;999.90;;;16.50;99.90;;;;;;5050633;28;20040;-79
2022/05/30 06:42:13;;;;;;;1999.90;999.90;;;16.70;99.90;;;;;;5065960;28;20117;-79
2022/05/30 06:44:39;;;;;;;1999.90;999.90;;;16.20;99.90;;;;;;5053971;28;20173;-79
2022/05/30 06:47:07;;;;;;;1999.90;999.90;;;15.40;99.90;;;;;;5071978;28;20036;-80
2022/05/30 06:49:33;;;;;;;1999.90;999.90;;;15.20;99.90;;;;;;5063659;28;20524;-79
2022/05/30 06:51:58;;;;;;;1999.90;999.90;;;14.80;99.90;;;;;;5079240;28;20123;-80
2022/05/30 06:54:24;;;;;;;1999.90;999.90;;;14.30;99.90;;;;;;5056716;28;20071;-80
2022/05/30 06:59:35;;;;;;;1999.90;999.90;;;14.10;99.90;;;;;;5087420;28;20050;-80
2022/05/30 07:02:02;;;;;;;1999.90;999.90;;;14.70;99.90;;;;;;5069461;28;20123;-80
2022/05/30 07:04:33;;;;;;;1999.90;999.90;;;15.30;99.90;;;;;;5066571;28;20040;-80
2022/05/30 07:07:02;;;;;;;1999.90;999.90;;;15.50;99.90;;;;;;5055823;28;20502;-80
2022/05/30 07:09:28;;;;;;;1999.90;999.90;;;15.20;99.90;;;;;;5053771;28;20047;-80
2022/05/30 07:11:54;;;;;;;1999.90;999.90;;;14.70;99.90;;;;;;5071369;28;20485;-80
2022/05/30 07:14:19;;;;;;;1999.90;999.90;;;14.40;99.90;;;;;;5083568;28;20038;-80
2022/05/30 07:16:45;;;;;;;1999.90;999.90;;;14.10;99.90;;;;;;5059525;28;20046;-80
2022/05/30 07:19:10;;;;;;;1999.90;999.90;;;13.80;99.90;;;;;;5096976;28;20092;-80
2022/05/30 07:21:38;;;;;;;1999.90;999.90;;;13.70;99.90;;;;;;5059324;28;20035;-80
2022/05/30 07:24:04;;;;;;;1999.90;999.90;;;13.60;99.90;;;;;;5054209;28;20048;-80
2022/05/30 07:26:30;;;;;;;1999.90;999.90;;;13.50;99.90;;;;;;5065972;28;20044;-80
2022/05/30 07:28:56;;;;;;;1999.90;999.90;;;13.40;99.90;;;;;;5076532;28;20419;-80
2022/05/30 07:31:25;;;;;;;1999.90;999.90;;;13.60;99.90;;;;;;5054785;28;20040;-81
2022/05/30 07:33:52;;;;;;;1999.90;999.90;;;13.70;99.90;;;;;;5060685;28;20132;-80
2022/05/30 07:36:24;;;;;;;1999.90;999.90;;;13.70;99.90;;;;;;5065503;28;20044;-80
2022/05/30 07:38:51;;;;;;;1999.90;999.90;;;13.60;99.90;;;;;;5068283;28;20069;-80
2022/05/30 07:41:18;;;;;;;1999.90;999.90;;;13.50;99.90;;;;;;5067755;28;20063;-80
2022/05/30 07:43:45;;;;;;;1999.90;999.90;;;13.60;99.90;;;;;;5041087;28;20131;-80
2022/05/30 07:46:14;;;;;;;1999.90;999.90;;;13.60;99.90;;;;;;5073555;28;20037;-81
2022/05/30 07:48:40;;;;;;;1999.90;999.90;;;13.60;99.90;;;;;;5049181;28;20172;-81
2022/05/30 07:51:07;;;;;;;1999.90;999.90;;;13.60;99.90;;;;;;5054338;28;20040;-80
2022/05/30 07:53:34;;;;;;;1999.90;999.90;;;13.50;99.90;;;;;;5069875;28;20044;-80
2022/05/30 07:56:03;;;;;;;1999.90;999.90;;;13.50;99.90;;;;;;5071284;28;20039;-81
2022/05/30 07:58:28;;;;;;;1999.90;999.90;;;14.00;99.90;;;;;;5044231;28;20209;-79
2022/05/30 08:00:54;;;;;;;1999.90;999.90;;;14.50;99.90;;;;;;5072777;28;20505;-81
2022/05/30 08:03:21;;;;;;;1999.90;999.90;;;14.50;99.90;;;;;;5073420;28;20048;-81
2022/05/30 08:05:47;;;;;;;1999.90;999.90;;;14.60;99.90;;;;;;5061589;28;20484;-79
2022/05/30 08:08:14;;;;;;;1999.90;999.90;;;14.60;99.90;;;;;;5075704;28;20070;-81
2022/05/30 08:10:39;;;;;;;1999.90;999.90;;;15.10;99.90;;;;;;5071494;28;20047;-80
2022/05/30 08:13:05;;;;;;;1999.90;999.90;;;15.90;99.90;;;;;;5043185;28;20035;-81
2022/05/30 08:15:31;;;;;;;1999.90;999.90;;;16.10;99.90;;;;;;5076640;28;20577;-79
2022/05/30 08:17:58;;;;;;;1999.90;999.90;;;15.30;99.90;;;;;;5070506;28;20071;-80
2022/05/30 08:20:29;;;;;;;1999.90;999.90;;;14.30;99.90;;;;;;5054590;28;20116;-79
2022/05/30 08:22:55;;;;;;;1999.90;999.90;;;13.40;99.90;;;;;;5064263;28;20055;-79
2022/05/30 08:25:21;;;;;;;1999.90;999.90;;;12.70;99.90;;;;;;5053538;28;20040;-80
2022/05/30 08:27:47;;;;;;;1999.90;999.90;;;12.10;99.90;;;;;;5053682;28;20075;-80
2022/05/30 08:30:19;;;;;;;1999.90;999.90;;;11.80;99.90;;;;;;5063771;28;20436;-81
2022/05/30 08:32:46;;;;;;;1999.90;999.90;;;11.60;99.90;;;;;;5044645;28;20041;-81
2022/05/30 08:35:16;;;;;;;1999.90;999.90;;;11.50;99.90;;;;;;5064008;28;20130;-81
2022/05/30 08:37:42;;;;;;;1999.90;999.90;;;11.50;99.90;;;;;;5048722;28;20246;-81
2022/05/30 08:43:10;;;;;;;1999.90;999.90;;;11.70;99.90;;;;;;5064739;28;20048;-81
2022/05/30 08:45:37;;;;;;;1999.90;999.90;;;12.00;99.90;;;;;;5038342;28;20080;-81
2022/05/30 08:48:19;;;;;;;1999.90;999.90;;;12.10;99.90;;;;;;5056168;28;20037;-80
2022/05/30 08:51:06;;;;;;;1999.90;999.90;;;12.20;99.90;;;;;;5061264;28;20040;-80
2022/05/30 08:53:53;;;;;;;1999.90;999.90;;;12.40;99.90;;;;;;5050739;28;20089;-80
2022/05/30 08:56:47;;;;;;;1999.90;999.90;;;12.50;99.90;;;;;;5040326;28;20123;-80
2022/05/30 08:59:21;;;;;;;1999.90;999.90;;;12.70;99.90;;;;;;5065252;28;20055;-80
2022/05/30 09:01:54;;;;;;;1999.90;999.90;;;12.90;99.90;;;;;;5054691;28;20047;-81
2022/05/30 09:04:36;;;;;;;1999.90;999.90;;;13.00;99.90;;;;;;5064089;28;20162;-81
2022/05/30 09:07:13;;;;;;;1999.90;999.90;;;13.00;99.90;;;;;;5071868;28;20055;-80
2022/05/30 09:09:39;;;;;;;1999.90;999.90;;;13.10;99.90;;;;;;5086050;28;20089;-80
2022/05/30 09:12:17;;;;;;;1999.90;999.90;;;13.20;99.90;;;;;;5066940;28;20040;-80
2022/05/30 09:15:32;;;;;;;1999.90;999.90;;;13.20;99.90;;;;;;5071387;28;20246;-80
2022/05/30 09:18:00;;;;;;;1999.90;999.90;;;13.50;99.90;;;;;;5069888;28;21419;-80
2022/05/30 09:20:28;;;;;;;1999.90;999.90;;;13.70;99.90;;;;;;5055676;28;20046;-80
2022/05/30 09:22:54;;;;;;;1999.90;999.90;;;13.80;99.90;;;;;;5048114;28;20055;-79
2022/05/30 09:28:09;;;;;;;1999.90;999.90;;;13.80;99.90;;;;;;5073334;28;20445;-80
2022/05/30 09:30:50;;;;;;;1999.90;999.90;;;14.00;99.90;;;;;;5059106;28;20114;-79
2022/05/30 09:33:31;;;;;;;1999.90;999.90;;;14.20;99.90;;;;;;5057837;28;20047;-80
2022/05/30 09:36:11;;;;;;;1999.90;999.90;;;14.40;99.90;;;;;;5057460;28;20046;-80
2022/05/30 09:38:48;;;;;;;1999.90;999.90;;;14.40;99.90;;;;;;5061122;28;20106;-80
2022/05/30 09:41:21;;;;;;;1999.90;999.90;;;14.60;99.90;;;;;;5060316;28;20424;-80
2022/05/30 09:44:12;;;;;;;1999.90;999.90;;;14.60;99.90;;;;;;5073872;28;20583;-80
2022/05/30 09:46:57;;;;;;;1999.90;999.90;;;14.50;99.90;;;;;;5054209;28;20391;-80
2022/05/30 09:49:25;;;;;;;1999.90;999.90;;;14.50;99.90;;;;;;5042756;28;20086;-80
2022/05/30 09:52:00;;;;;;;1999.90;999.90;;;14.60;99.90;;;;;;5053494;28;20377;-80
2022/05/30 09:54:26;;;;;;;1999.90;999.90;;;14.60;99.90;;;;;;5060912;28;20040;-79
2022/05/30 09:57:05;;;;;;;1999.90;999.90;;;14.40;99.90;;;;;;5050541;28;20416;-79
2022/05/30 09:59:35;;;;;;;1999.90;999.90;;;14.30;99.90;;;;;;5071198;28;20435;-79
2022/05/30 10:02:02;;;;;;;1999.90;999.90;;;14.30;99.90;;;;;;5075970;28;20054;-78
2022/05/30 10:04:41;;;;;;;1999.90;999.90;;;14.50;99.90;;;;;;5072635;28;20056;-79
2022/05/30 10:07:20;;;;;;;1999.90;999.90;;;14.60;99.90;;;;;;5071766;28;20035;-79
2022/05/30 10:09:58;;;;;;;1999.90;999.90;;;14.50;99.90;;;;;;5057985;28;20032;-79
2022/05/30 10:12:38;;;;;;;1999.90;999.90;;;14.40;99.90;;;;;;5073692;28;20036;-79
2022/05/30 10:15:25;;;;;;;1999.90;999.90;;;14.30;99.90;;;;;;5069856;28;20058;-80
2022/05/30 10:17:52;;;;;;;1999.90;999.90;;;14.10;99.90;;;;;;5075924;28;20069;-80
2022/05/30 10:20:54;;;;;;;1999.90;999.90;;;14.00;99.90;;;;;;5047157;28;20040;-80
2022/05/30 10:30:15;;;;;;;1999.90;999.90;;;13.30;99.90;;;;;;5060980;28;20052;-79
2022/05/30 10:33:17;;;;;;;1999.90;999.90;;;12.80;99.90;;;;;;5059449;28;20040;-80
2022/05/30 10:35:58;;;;;;;1999.90;999.90;;;12.60;99.90;;;;;;5065987;28;20646;-80
2022/05/30 10:38:52;;;;;;;1999.90;999.90;;;12.40;99.90;;;;;;5045024;28;20406;-80
2022/05/30 10:41:57;;;;;;;1999.90;999.90;;;12.20;99.90;;;;;;5055074;28;20044;-80
2022/05/30 10:44:33;;;;;;;1999.90;999.90;;;12.00;99.90;;;;;;4971289;28;20751;-80
2022/05/30 10:47:21;;;;;;;1999.90;999.90;;;11.80;99.90;;;;;;4971580;28;20050;-81
2022/05/30 10:49:58;;;;;;;1999.90;999.90;;;11.70;99.90;;;;;;4953297;28;20047;-81
2022/05/30 10:52:32;;;;;;;1999.90;999.90;;;11.50;99.90;;;;;;4955041;28;20805;-81
2022/05/30 10:55:04;;;;;;;1999.90;999.90;;;11.30;99.90;;;;;;4964683;28;20535;-80
2022/05/30 10:57:41;;;;;;;1999.90;999.90;;;11.20;99.90;;;;;;4961770;28;20464;-81
2022/05/30 11:00:17;;;;;;;1999.90;999.90;;;11.30;99.90;;;;;;4951487;28;20050;-80
2022/05/30 11:02:55;;;;;;;1999.90;999.90;;;11.30;99.90;;;;;;4968994;28;20069;-81
2022/05/30 11:05:27;;;;;;;1999.90;999.90;;;11.40;99.90;;;;;;4974842;28;20066;-81
2022/05/30 11:08:08;;;;;;;1999.90;999.90;;;11.60;99.90;;;;;;4955574;28;20062;-81
2022/05/30 11:10:43;;;;;;;1999.90;999.90;;;11.70;99.90;;;;;;4976465;28;20113;-81
2022/05/30 11:13:21;;;;;;;1999.90;999.90;;;11.70;99.90;;;;;;4969855;28;20065;-80
2022/05/30 11:15:52;;;;;;;1999.90;999.90;;;11.80;99.90;;;;;;4948384;28;20134;-80
2022/05/30 11:18:57;;;;;;;1999.90;999.90;;;11.90;99.90;;;;;;4981856;28;20108;-80
2022/05/30 11:21:32;;;;;;;1999.90;999.90;;;11.90;99.90;;;;;;5051812;28;20051;-80
2022/05/30 11:24:05;;;;;;;1999.90;999.90;;;12.10;99.90;;;;;;5055300;28;20413;-80
2022/05/30 11:26:56;;;;;;;1999.90;999.90;;;12.50;99.90;;;;;;5055249;28;20152;-81
2022/05/30 11:29:48;;;;;;;1999.90;999.90;;;12.70;99.90;;;;;;5055869;28;20044;-81
2022/05/30 11:32:44;;;;;;;1999.90;999.90;;;13.00;99.90;;;;;;5065139;28;20036;-80
2022/05/30 11:35:33;;;;;;;1999.90;999.90;;;13.20;99.90;;;;;;5042285;28;20046;-80
2022/05/30 11:38:10;;;;;;;1999.90;999.90;;;13.40;99.90;;;;;;5048822;28;20440;-80
2022/05/30 11:40:45;;;;;;;1999.90;999.90;;;13.70;99.90;;;;;;5072350;28;20043;-80
2022/05/30 11:43:49;;;;;;;1999.90;999.90;;;14.00;99.90;;;;;;5070066;28;20415;-80
2022/05/30 11:46:34;;;;;;;1999.90;999.90;;;14.60;99.90;;;;;;5009500;28;20057;-80
2022/05/30 11:49:22;;;;;;;1999.90;999.90;;;14.90;99.90;;;;;;5067326;28;20513;-81
2022/05/30 11:52:18;;;;;;;1999.90;999.90;;;15.00;99.90;;;;;;5037650;28;20048;-81
2022/05/30 11:55:17;;;;;;;1999.90;999.90;;;15.10;99.90;;;;;;5051838;28;20052;-81
2022/05/30 11:57:55;;;;;;;1999.90;999.90;;;14.70;99.90;;;;;;5048302;28;20110;-81
2022/05/30 12:00:34;;;;;;;1999.90;999.90;;;14.20;99.90;;;;;;5038099;28;20082;-80
2022/05/30 12:03:13;;;;;;;1999.90;999.90;;;13.70;99.90;;;;;;5066973;28;20036;-80
2022/05/30 12:06:07;;;;;;;1999.90;999.90;;;13.40;99.90;;;;;;5059174;28;20047;-80
2022/05/30 12:09:10;;;;;;;1999.90;999.90;;;13.30;99.90;;;;;;5046329;28;20040;-80
2022/05/30 12:11:45;;;;;;;1999.90;999.90;;;13.20;99.90;;;;;;5039002;28;20573;-80
2022/05/30 12:14:22;;;;;;;1999.90;999.90;;;13.00;99.90;;;;;;5048812;28;20044;-80
2022/05/30 12:17:22;;;;;;;1999.90;999.90;;;12.90;99.90;;;;;;5050520;28;20517;-80
2022/05/30 12:25:35;;;;;;;1999.90;999.90;;;13.00;99.90;;;;;;5052249;28;20067;-80
2022/05/30 12:28:02;;;;;;;1999.90;999.90;;;13.00;99.90;;;;;;5072663;28;20619;-80
2022/05/30 12:30:33;;;;;;;1999.90;999.90;;;13.10;99.90;;;;;;5044059;28;20036;-80
2022/05/30 12:32:59;;;;;;;1999.90;999.90;;;13.10;99.90;;;;;;5059958;28;20036;-80
2022/05/30 12:35:29;;;;;;;1999.90;999.90;;;13.30;99.90;;;;;;5064479;28;20036;-80
2022/05/30 12:37:58;;;;;;;1999.90;999.90;;;13.40;99.90;;;;;;5070351;28;20110;-80
2022/05/30 12:40:26;;;;;;;1999.90;999.90;;;13.40;99.90;;;;;;5038775;28;20050;-80
2022/05/30 12:43:07;;;;;;;1999.90;999.90;;;13.50;99.90;;;;;;5044644;28;20071;-80
2022/05/30 12:46:07;;;;;;;1999.90;999.90;;;13.60;99.90;;;;;;5052447;28;20469;-80
2022/05/30 12:48:36;;;;;;;1999.90;999.90;;;13.60;99.90;;;;;;5058945;28;20097;-80